sensor_id;sensor_type;location;lat;lon;timestamp;temperature;humidity
14687;DHT22;7431;49.440;11.084;2023-03-29T08:31:39;13.80;99.90
14687;DHT22;7431;49.440;11.084;2023-03-29T08:34:05;14.10;99.90
14687;DHT22;7431;49.440;11.084;2023-03-29T08:36:31;15.40;99.90
14687;DHT22;7431;49.440;11.084;2023-03-29T08:38:57;15.80;99.90
14687;DHT22;7431;49.440;11.084;2023-03-29T08:44:19;16.50;99.90
14687;DHT22;7431;49.440;11.084;2023-03-29T08:47:24;17.10;99.90
14687;DHT22;7431;49.440;11.084;2023-03-29T08:49:55;17.50;99.90
14687;DHT22;7431;49.440;11.084;2023-03-29T08:52:30;17.50;99.90
14687;DHT22;7431;49.440;11.084;2023-03-29T08:54:57;16.80;99.90
14687;DHT22;7431;49.440;11.084;2023-03-29T08:57:29;16.50;99.90
14687;DHT22;7431;49.440;11.084;2023-03-29T08:59:58;16.10;99.90
14687;DHT22;7431;49.440;11.084;2023-03-29T09:02:29;16.20;99.90
14687;DHT22;7431;49.440;11.084;2023-03-29T09:05:00;16.50;99.90
14687;DHT22;7431;49.440;11.084;2023-03-29T09:07:29;16.50;99.90
14687;DHT22;7431;49.440;11.084;2023-03-29T09:09:55;16.70;99.90
14687;DHT22;7431;49.440;11.084;2023-03-29T09:15:26;17.60;99.90
14687;DHT22;7431;49.440;11.084;2023-03-29T09:20:54;18.30;99.90
14687;DHT22;7431;49.440;11.084;2023-03-29T09:26:17;19.30;99.90
14687;DHT22;7431;49.440;11.084;2023-03-29T09:29:05;19.60;99.90
14687;DHT22;7431;49.440;11.084;2023-03-29T09:31:34;19.60;99.90
14687;DHT22;7431;49.440;11.084;2023-03-29T09:34:22;19.30;99.90
14687;DHT22;7431;49.440;11.084;2023-03-29T09:39:17;19.20;99.90
14687;DHT22;7431;49.440;11.084;2023-03-29T09:41:48;19.20;99.90
14687;DHT22;7431;49.440;11.084;2023-03-29T09:44:19;19.10;99.90
14687;DHT22;7431;49.440;11.084;2023-03-29T09:46:54;18.80;99.90
14687;DHT22;7431;49.440;11.084;2023-03-29T09:49:26;18.60;99.90
14687;DHT22;7431;49.440;11.084;2023-03-29T09:51:55;18.50;99.90
14687;DHT22;7431;49.440;11.084;2023-03-29T09:54:23;18.20;99.90
14687;DHT22;7431;49.440;11.084;2023-03-29T09:56:49;17.80;99.90
14687;DHT22;7431;49.440;11.084;2023-03-29T09:59:16;17.50;99.90
14687;DHT22;7431;49.440;11.084;2023-03-29T10:01:42;17.30;99.90
14687;DHT22;7431;49.440;11.084;2023-03-29T10:04:12;16.90;99.90
14687;DHT22;7431;49.440;11.084;2023-03-29T10:06:44;16.60;99.90
14687;DHT22;7431;49.440;11.084;2023-03-29T10:09:18;16.30;99.90
14687;DHT22;7431;49.440;11.084;2023-03-29T10:11:47;16.00;99.90
14687;DHT22;7431;49.440;11.084;2023-03-29T10:14:21;16.10;99.90
14687;DHT22;7431;49.440;11.084;2023-03-29T10:16:54;16.30;99.90
14687;DHT22;7431;49.440;11.084;2023-03-29T10:19:26;16.30;99.90
14687;DHT22;7431;49.440;11.084;2023-03-29T10:21:53;16.30;99.90
14687;DHT22;7431;49.440;11.084;2023-03-29T10:24:21;16.30;99.90
14687;DHT22;7431;49.440;11.084;2023-03-29T10:26:49;16.20;99.90
14687;DHT22;7431;49.440;11.084;2023-03-29T10:29:20;16.20;99.90
14687;DHT22;7431;49.440;11.084;2023-03-29T10:31:47;16.00;99.90
14687;DHT22;7431;49.440;11.084;2023-03-29T10:34:14;16.10;99.90
14687;DHT22;7431;49.440;11.084;2023-03-29T10:36:43;16.00;99.90
14687;DHT22;7431;49.440;11.084;2023-03-29T10:39:13;15.90;99.90
14687;DHT22;7431;49.440;11.084;2023-03-29T10:41:40;15.90;99.90
14687;DHT22;7431;49.440;11.084;2023-03-29T10:44:05;15.90;99.90
14687;DHT22;7431;49.440;11.084;2023-03-29T10:46:39;16.00;99.90
14687;DHT22;7431;49.440;11.084;2023-03-29T10:49:15;16.00;99.90
14687;DHT22;7431;49.440;11.084;2023-03-29T10:51:46;16.20;99.90
14687;DHT22;7431;49.440;11.084;2023-03-29T10:54:15;16.40;99.90
14687;DHT22;7431;49.440;11.084;2023-03-29T10:56:48;16.50;99.90
14687;DHT22;7431;49.440;11.084;2023-03-29T11:13:13;17.50;99.90
14687;DHT22;7431;49.440;11.084;2023-03-29T11:24:24;17.80;99.90
14687;DHT22;7431;49.440;11.084;2023-03-29T11:27:21;17.80;99.90
14687;DHT22;7431;49.440;11.084;2023-03-29T11:35:52;17.60;99.90
14687;DHT22;7431;49.440;11.084;2023-03-29T11:38:33;17.40;99.90
14687;DHT22;7431;49.440;11.084;2023-03-29T11:43:48;17.20;99.90
14687;DHT22;7431;49.440;11.084;2023-03-29T11:46:22;17.30;99.90
14687;DHT22;7431;49.440;11.084;2023-03-29T11:49:15;17.30;99.90
14687;DHT22;7431;49.440;11.084;2023-03-29T11:52:15;17.30;99.90
14687;DHT22;7431;49.440;11.084;2023-03-29T11:55:27;17.50;99.90
14687;DHT22;7431;49.440;11.084;2023-03-29T11:58:09;17.40;99.90
14687;DHT22;7431;49.440;11.084;2023-03-29T12:00:44;17.30;99.90
14687;DHT22;7431;49.440;11.084;2023-03-29T12:08:56;17.60;99.90
14687;DHT22;7431;49.440;11.084;2023-03-29T12:11:36;17.80;99.90
14687;DHT22;7431;49.440;11.084;2023-03-29T12:14:09;18.00;99.90
14687;DHT22;7431;49.440;11.084;2023-03-29T12:16:46;18.00;99.90
14687;DHT22;7431;49.440;11.084;2023-03-29T12:22:21;17.60;99.90
14687;DHT22;7431;49.440;11.084;2023-03-29T12:24:47;17.80;99.90
14687;DHT22;7431;49.440;11.084;2023-03-29T12:27:23;17.70;99.90
14687;DHT22;7431;49.440;11.084;2023-03-29T12:30:21;17.90;99.90
14687;DHT22;7431;49.440;11.084;2023-03-29T12:33:04;17.90;99.90
14687;DHT22;7431;49.440;11.084;2023-03-29T12:38:10;18.00;99.90
14687;DHT22;7431;49.440;11.084;2023-03-29T12:40:42;17.90;99.90
14687;DHT22;7431;49.440;11.084;2023-03-29T12:43:31;17.70;99.90
14687;DHT22;7431;49.440;11.084;2023-03-29T12:46:05;17.60;99.90
14687;DHT22;7431;49.440;11.084;2023-03-29T12:48:31;17.40;99.90
14687;DHT22;7431;49.440;11.084;2023-03-29T12:51:10;17.50;99.90
14687;DHT22;7431;49.440;11.084;2023-03-29T12:53:48;17.70;99.90
14687;DHT22;7431;49.440;11.084;2023-03-29T12:56:18;18.10;99.90
14687;DHT22;7431;49.440;11.084;2023-03-29T13:01:36;18.40;99.90
14687;DHT22;7431;49.440;11.084;2023-03-29T13:04:15;18.40;99.90
14687;DHT22;7431;49.440;11.084;2023-03-29T13:09:29;18.10;99.90
14687;DHT22;7431;49.440;11.084;2023-03-29T13:14:38;17.50;99.90
14687;DHT22;7431;49.440;11.084;2023-03-29T13:17:07;17.50;99.90
14687;DHT22;7431;49.440;11.084;2023-03-29T13:19:44;17.70;99.90
14687;DHT22;7431;49.440;11.084;2023-03-29T13:31:03;17.00;99.90
14687;DHT22;7431;49.440;11.084;2023-03-29T13:33:55;17.00;99.90
14687;DHT22;7431;49.440;11.084;2023-03-29T13:38:52;16.90;99.90
14687;DHT22;7431;49.440;11.084;2023-03-29T13:44:02;16.70;99.90
14687;DHT22;7431;49.440;11.084;2023-03-29T13:46:37;16.50;99.90
14687;DHT22;7431;49.440;11.084;2023-03-29T13:49:23;16.30;99.90
14687;DHT22;7431;49.440;11.084;2023-03-29T13:54:23;16.40;99.90
14687;DHT22;7431;49.440;11.084;2023-03-29T13:59:59;16.50;99.90
14687;DHT22;7431;49.440;11.084;2023-03-29T14:03:06;16.50;99.90
14687;DHT22;7431;49.440;11.084;2023-03-29T14:05:37;16.60;99.90
14687;DHT22;7431;49.440;11.084;2023-03-29T14:10:48;17.10;99.90
14687;DHT22;7431;49.440;11.084;2023-03-29T14:13:16;17.10;99.90
14687;DHT22;7431;49.440;11.084;2023-03-29T14:15:54;17.30;99.90
14687;DHT22;7431;49.440;11.084;2023-03-29T14:18:24;17.30;99.90
14687;DHT22;7431;49.440;11.084;2023-03-29T14:20:52;17.30;99.90
14687;DHT22;7431;49.440;11.084;2023-03-29T14:23:24;17.40;99.90
14687;DHT22;7431;49.440;11.084;2023-03-29T14:25:50;17.30;99.90
14687;DHT22;7431;49.440;11.084;2023-03-29T14:28:27;17.40;99.90
14687;DHT22;7431;49.440;11.084;2023-03-29T14:30:54;17.20;99.90
14687;DHT22;7431;49.440;11.084;2023-03-29T14:33:29;17.20;99.90
14687;DHT22;7431;49.440;11.084;2023-03-29T14:35:56;17.10;99.90
14687;DHT22;7431;49.440;11.084;2023-03-29T14:38:23;16.90;99.90
14687;DHT22;7431;49.440;11.084;2023-03-29T14:40:49;16.80;99.90
14687;DHT22;7431;49.440;11.084;2023-03-29T14:43:20;16.60;99.90
14687;DHT22;7431;49.440;11.084;2023-03-29T14:45:47;16.40;99.90
14687;DHT22;7431;49.440;11.084;2023-03-29T14:48:13;16.40;99.90
14687;DHT22;7431;49.440;11.084;2023-03-29T14:50:40;16.60;99.90
14687;DHT22;7431;49.440;11.084;2023-03-29T14:53:07;16.60;99.90
14687;DHT22;7431;49.440;11.084;2023-03-29T14:55:34;16.60;99.90
14687;DHT22;7431;49.440;11.084;2023-03-29T14:58:00;16.40;99.90
14687;DHT22;7431;49.440;11.084;2023-03-29T15:00:28;16.20;99.90
14687;DHT22;7431;49.440;11.084;2023-03-29T15:03:10;16.00;99.90
14687;DHT22;7431;49.440;11.084;2023-03-29T15:05:39;15.80;99.90
14687;DHT22;7431;49.440;11.084;2023-03-29T15:08:07;15.60;99.90
14687;DHT22;7431;49.440;11.084;2023-03-29T15:10:37;15.50;99.90
14687;DHT22;7431;49.440;11.084;2023-03-29T15:13:05;15.50;99.90
14687;DHT22;7431;49.440;11.084;2023-03-29T15:15:34;15.40;99.90
14687;DHT22;7431;49.440;11.084;2023-03-29T15:18:02;15.40;99.90
14687;DHT22;7431;49.440;11.084;2023-03-29T15:20:40;15.40;99.90
14687;DHT22;7431;49.440;11.084;2023-03-29T15:23:08;15.30;99.90
14687;DHT22;7431;49.440;11.084;2023-03-29T15:25:56;15.10;99.90
14687;DHT22;7431;49.440;11.084;2023-03-29T15:28:25;14.90;99.90
14687;DHT22;7431;49.440;11.084;2023-03-29T15:30:56;14.80;99.90
14687;DHT22;7431;49.440;11.084;2023-03-29T15:33:22;14.70;99.90
14687;DHT22;7431;49.440;11.084;2023-03-29T15:35:52;14.70;99.90
14687;DHT22;7431;49.440;11.084;2023-03-29T15:38:18;14.70;99.90
14687;DHT22;7431;49.440;11.084;2023-03-29T15:40:45;14.80;99.90
14687;DHT22;7431;49.440;11.084;2023-03-29T15:43:11;15.00;99.90
14687;DHT22;7431;49.440;11.084;2023-03-29T15:45:37;15.10;99.90
14687;DHT22;7431;49.440;11.084;2023-03-29T15:48:14;15.20;99.90
14687;DHT22;7431;49.440;11.084;2023-03-29T15:50:42;15.20;99.90
14687;DHT22;7431;49.440;11.084;2023-03-29T15:53:08;15.20;99.90
14687;DHT22;7431;49.440;11.084;2023-03-29T15:55:33;15.20;99.90
14687;DHT22;7431;49.440;11.084;2023-03-29T15:57:59;15.20;99.90
14687;DHT22;7431;49.440;11.084;2023-03-29T16:00:25;15.20;99.90
14687;DHT22;7431;49.440;11.084;2023-03-29T16:02:52;15.20;99.90
14687;DHT22;7431;49.440;11.084;2023-03-29T16:05:18;15.10;99.90
14687;DHT22;7431;49.440;11.084;2023-03-29T16:07:43;15.20;99.90
14687;DHT22;7431;49.440;11.084;2023-03-29T16:10:09;15.10;99.90
14687;DHT22;7431;49.440;11.084;2023-03-29T16:12:35;15.20;99.90
14687;DHT22;7431;49.440;11.084;2023-03-29T16:15:14;15.10;99.90
14687;DHT22;7431;49.440;11.084;2023-03-29T16:17:42;15.00;99.90
14687;DHT22;7431;49.440;11.084;2023-03-29T16:20:08;14.90;99.90
14687;DHT22;7431;49.440;11.084;2023-03-29T16:22:35;14.80;99.90
14687;DHT22;7431;49.440;11.084;2023-03-29T16:25:00;14.80;99.90
14687;DHT22;7431;49.440;11.084;2023-03-29T16:27:29;14.50;99.90
14687;DHT22;7431;49.440;11.084;2023-03-29T16:29:56;14.50;99.90
14687;DHT22;7431;49.440;11.084;2023-03-29T16:32:23;14.40;99.90
14687;DHT22;7431;49.440;11.084;2023-03-29T16:34:48;14.30;99.90
14687;DHT22;7431;49.440;11.084;2023-03-29T16:37:14;14.20;99.90
14687;DHT22;7431;49.440;11.084;2023-03-29T16:39:40;14.20;99.90
14687;DHT22;7431;49.440;11.084;2023-03-29T16:42:06;14.10;99.90
14687;DHT22;7431;49.440;11.084;2023-03-29T16:44:31;14.10;99.90
14687;DHT22;7431;49.440;11.084;2023-03-29T16:46:57;14.00;99.90
14687;DHT22;7431;49.440;11.084;2023-03-29T16:49:23;14.00;99.90
14687;DHT22;7431;49.440;11.084;2023-03-29T16:51:49;14.00;99.90
14687;DHT22;7431;49.440;11.084;2023-03-29T16:54:15;13.80;99.90
14687;DHT22;7431;49.440;11.084;2023-03-29T16:56:41;13.70;99.90
14687;DHT22;7431;49.440;11.084;2023-03-29T16:59:07;13.60;99.90
14687;DHT22;7431;49.440;11.084;2023-03-29T17:01:33;13.60;99.90
14687;DHT22;7431;49.440;11.084;2023-03-29T17:04:00;13.50;99.90
14687;DHT22;7431;49.440;11.084;2023-03-29T17:06:26;13.40;99.90
14687;DHT22;7431;49.440;11.084;2023-03-29T17:08:51;13.30;99.90
14687;DHT22;7431;49.440;11.084;2023-03-29T17:11:18;13.20;99.90
14687;DHT22;7431;49.440;11.084;2023-03-29T17:13:47;13.10;99.90
14687;DHT22;7431;49.440;11.084;2023-03-29T17:16:13;13.00;99.90
14687;DHT22;7431;49.440;11.084;2023-03-29T17:18:39;13.00;99.90
14687;DHT22;7431;49.440;11.084;2023-03-29T17:21:04;12.90;99.90
14687;DHT22;7431;49.440;11.084;2023-03-29T17:23:30;12.90;99.90
14687;DHT22;7431;49.440;11.084;2023-03-29T17:25:56;12.80;99.90
14687;DHT22;7431;49.440;11.084;2023-03-29T17:28:22;12.80;99.90
14687;DHT22;7431;49.440;11.084;2023-03-29T17:30:48;12.70;99.90
14687;DHT22;7431;49.440;11.084;2023-03-29T17:33:14;12.60;99.90
14687;DHT22;7431;49.440;11.084;2023-03-29T17:35:43;12.60;99.90
14687;DHT22;7431;49.440;11.084;2023-03-29T17:38:09;12.50;99.90
14687;DHT22;7431;49.440;11.084;2023-03-29T17:40:35;12.50;99.90
14687;DHT22;7431;49.440;11.084;2023-03-29T17:43:00;12.40;99.90
14687;DHT22;7431;49.440;11.084;2023-03-29T17:45:26;12.40;99.90
14687;DHT22;7431;49.440;11.084;2023-03-29T17:47:52;12.40;99.90
14687;DHT22;7431;49.440;11.084;2023-03-29T17:50:17;12.40;99.90
14687;DHT22;7431;49.440;11.084;2023-03-29T17:52:43;12.40;99.90
14687;DHT22;7431;49.440;11.084;2023-03-29T17:55:10;12.30;99.90
14687;DHT22;7431;49.440;11.084;2023-03-29T17:57:38;12.30;99.90
14687;DHT22;7431;49.440;11.084;2023-03-29T18:00:09;12.50;99.90
14687;DHT22;7431;49.440;11.084;2023-03-29T18:02:37;12.40;99.90
14687;DHT22;7431;49.440;11.084;2023-03-29T18:05:06;12.50;99.90
14687;DHT22;7431;49.440;11.084;2023-03-29T18:07:33;12.50;99.90
14687;DHT22;7431;49.440;11.084;2023-03-29T18:09:59;12.40;99.90
14687;DHT22;7431;49.440;11.084;2023-03-29T18:12:25;12.40;99.90
14687;DHT22;7431;49.440;11.084;2023-03-29T18:14:51;12.40;99.90
14687;DHT22;7431;49.440;11.084;2023-03-29T18:17:17;12.30;99.90
14687;DHT22;7431;49.440;11.084;2023-03-29T18:19:43;12.30;99.90
14687;DHT22;7431;49.440;11.084;2023-03-29T18:22:08;12.20;99.90
14687;DHT22;7431;49.440;11.084;2023-03-29T18:24:34;12.20;99.90
14687;DHT22;7431;49.440;11.084;2023-03-29T18:26:59;12.20;99.90
14687;DHT22;7431;49.440;11.084;2023-03-29T18:29:25;12.20;99.90
14687;DHT22;7431;49.440;11.084;2023-03-29T18:31:51;12.20;99.90
14687;DHT22;7431;49.440;11.084;2023-03-29T18:34:16;12.20;99.90
14687;DHT22;7431;49.440;11.084;2023-03-29T18:36:42;12.20;99.90
14687;DHT22;7431;49.440;11.084;2023-03-29T18:39:08;12.20;99.90
14687;DHT22;7431;49.440;11.084;2023-03-29T18:41:34;12.20;99.90
14687;DHT22;7431;49.440;11.084;2023-03-29T18:44:02;12.20;99.90
14687;DHT22;7431;49.440;11.084;2023-03-29T18:46:28;12.20;99.90
14687;DHT22;7431;49.440;11.084;2023-03-29T18:48:58;12.20;99.90
14687;DHT22;7431;49.440;11.084;2023-03-29T18:51:24;12.30;99.90
14687;DHT22;7431;49.440;11.084;2023-03-29T18:53:52;12.20;99.90
14687;DHT22;7431;49.440;11.084;2023-03-29T18:56:18;12.30;99.90
14687;DHT22;7431;49.440;11.084;2023-03-29T18:58:44;12.30;99.90
14687;DHT22;7431;49.440;11.084;2023-03-29T19:01:09;12.30;99.90
14687;DHT22;7431;49.440;11.084;2023-03-29T19:03:37;12.30;99.90
14687;DHT22;7431;49.440;11.084;2023-03-29T19:06:02;12.40;99.90
14687;DHT22;7431;49.440;11.084;2023-03-29T19:08:28;12.40;99.90
14687;DHT22;7431;49.440;11.084;2023-03-29T19:11:00;12.40;99.90
14687;DHT22;7431;49.440;11.084;2023-03-29T19:13:25;12.40;99.90
14687;DHT22;7431;49.440;11.084;2023-03-29T19:15:51;12.30;99.90
14687;DHT22;7431;49.440;11.084;2023-03-29T19:18:17;12.40;99.90
14687;DHT22;7431;49.440;11.084;2023-03-29T19:20:43;12.40;99.90
14687;DHT22;7431;49.440;11.084;2023-03-29T19:23:09;12.40;99.90
14687;DHT22;7431;49.440;11.084;2023-03-29T19:25:35;12.40;99.90
14687;DHT22;7431;49.440;11.084;2023-03-29T19:28:03;12.40;99.90
14687;DHT22;7431;49.440;11.084;2023-03-29T19:30:29;12.50;99.90
14687;DHT22;7431;49.440;11.084;2023-03-29T19:32:55;12.40;99.90
14687;DHT22;7431;49.440;11.084;2023-03-29T19:35:20;12.40;99.90
14687;DHT22;7431;49.440;11.084;2023-03-29T19:37:46;12.40;99.90
14687;DHT22;7431;49.440;11.084;2023-03-29T19:40:12;12.30;99.90
14687;DHT22;7431;49.440;11.084;2023-03-29T19:42:38;12.30;99.90
14687;DHT22;7431;49.440;11.084;2023-03-29T19:45:05;12.20;99.90
14687;DHT22;7431;49.440;11.084;2023-03-29T19:47:32;12.20;99.90
14687;DHT22;7431;49.440;11.084;2023-03-29T19:49:58;12.20;99.90
14687;DHT22;7431;49.440;11.084;2023-03-29T19:52:24;12.20;99.90
14687;DHT22;7431;49.440;11.084;2023-03-29T19:54:55;12.20;99.90
14687;DHT22;7431;49.440;11.084;2023-03-29T19:57:21;12.20;99.90
14687;DHT22;7431;49.440;11.084;2023-03-29T19:59:47;12.10;99.90
14687;DHT22;7431;49.440;11.084;2023-03-29T20:02:13;12.10;99.90
14687;DHT22;7431;49.440;11.084;2023-03-29T20:04:38;12.00;99.90
14687;DHT22;7431;49.440;11.084;2023-03-29T20:07:04;12.00;99.90
14687;DHT22;7431;49.440;11.084;2023-03-29T20:09:31;12.00;99.90
14687;DHT22;7431;49.440;11.084;2023-03-29T20:12:00;12.00;99.90
14687;DHT22;7431;49.440;11.084;2023-03-29T20:14:25;11.90;99.90
14687;DHT22;7431;49.440;11.084;2023-03-29T20:16:51;11.90;99.90
14687;DHT22;7431;49.440;11.084;2023-03-29T20:19:18;11.90;99.90
14687;DHT22;7431;49.440;11.084;2023-03-29T20:21:53;11.80;99.90
14687;DHT22;7431;49.440;11.084;2023-03-29T20:24:23;11.80;99.90
14687;DHT22;7431;49.440;11.084;2023-03-29T20:26:49;11.80;99.90
14687;DHT22;7431;49.440;11.084;2023-03-29T20:29:15;11.80;99.90
14687;DHT22;7431;49.440;11.084;2023-03-29T20:31:42;11.80;99.90
14687;DHT22;7431;49.440;11.084;2023-03-29T20:34:08;11.80;99.90
14687;DHT22;7431;49.440;11.084;2023-03-29T20:36:33;11.70;99.90
14687;DHT22;7431;49.440;11.084;2023-03-29T20:39:00;11.70;99.90
14687;DHT22;7431;49.440;11.084;2023-03-29T20:41:26;11.70;99.90
14687;DHT22;7431;49.440;11.084;2023-03-29T20:43:54;11.70;99.90
14687;DHT22;7431;49.440;11.084;2023-03-29T20:46:24;11.90;99.90
14687;DHT22;7431;49.440;11.084;2023-03-29T20:49:01;11.70;99.90
14687;DHT22;7431;49.440;11.084;2023-03-29T20:51:29;11.70;99.90
14687;DHT22;7431;49.440;11.084;2023-03-29T20:54:04;11.70;99.90
14687;DHT22;7431;49.440;11.084;2023-03-29T20:56:37;11.70;99.90
14687;DHT22;7431;49.440;11.084;2023-03-29T20:59:05;11.60;99.90
14687;DHT22;7431;49.440;11.084;2023-03-29T21:01:32;11.60;99.90
14687;DHT22;7431;49.440;11.084;2023-03-29T21:03:59;11.60;99.90
14687;DHT22;7431;49.440;11.084;2023-03-29T21:06:25;11.70;99.90
14687;DHT22;7431;49.440;11.084;2023-03-29T21:08:51;11.70;99.90
14687;DHT22;7431;49.440;11.084;2023-03-29T21:11:18;11.70;99.90
14687;DHT22;7431;49.440;11.084;2023-03-29T21:13:44;11.60;99.90
14687;DHT22;7431;49.440;11.084;2023-03-29T21:16:11;11.70;99.90
14687;DHT22;7431;49.440;11.084;2023-03-29T21:18:38;11.60;99.90
14687;DHT22;7431;49.440;11.084;2023-03-29T21:21:09;11.60;99.90
14687;DHT22;7431;49.440;11.084;2023-03-29T21:23:35;11.50;99.90
14687;DHT22;7431;49.440;11.084;2023-03-29T21:26:02;11.60;99.90
14687;DHT22;7431;49.440;11.084;2023-03-29T21:28:29;11.70;99.90
14687;DHT22;7431;49.440;11.084;2023-03-29T21:30:55;11.70;99.90
14687;DHT22;7431;49.440;11.084;2023-03-29T21:33:21;11.70;99.90
14687;DHT22;7431;49.440;11.084;2023-03-29T21:35:48;11.60;99.90
14687;DHT22;7431;49.440;11.084;2023-03-29T21:38:14;11.60;99.90
14687;DHT22;7431;49.440;11.084;2023-03-29T21:40:40;11.80;99.90
14687;DHT22;7431;49.440;11.084;2023-03-29T21:43:06;11.60;99.90
14687;DHT22;7431;49.440;11.084;2023-03-29T21:45:31;11.60;99.90
14687;DHT22;7431;49.440;11.084;2023-03-29T21:47:57;11.60;99.90
14687;DHT22;7431;49.440;11.084;2023-03-29T21:50:23;11.60;99.90
14687;DHT22;7431;49.440;11.084;2023-03-29T21:52:48;11.60;99.90
14687;DHT22;7431;49.440;11.084;2023-03-29T21:55:14;11.60;99.90
14687;DHT22;7431;49.440;11.084;2023-03-29T21:57:40;11.60;99.90
14687;DHT22;7431;49.440;11.084;2023-03-29T22:00:07;11.60;99.90
14687;DHT22;7431;49.440;11.084;2023-03-29T22:02:36;11.50;99.90
14687;DHT22;7431;49.440;11.084;2023-03-29T22:05:02;11.40;99.90
14687;DHT22;7431;49.440;11.084;2023-03-29T22:07:28;11.50;99.90
14687;DHT22;7431;49.440;11.084;2023-03-29T22:09:54;11.50;99.90
14687;DHT22;7431;49.440;11.084;2023-03-29T22:12:23;11.40;99.90
14687;DHT22;7431;49.440;11.084;2023-03-29T22:14:51;11.90;99.90
14687;DHT22;7431;49.440;11.084;2023-03-29T22:17:17;11.40;99.90
14687;DHT22;7431;49.440;11.084;2023-03-29T22:19:42;11.70;99.90
14687;DHT22;7431;49.440;11.084;2023-03-29T22:22:08;11.40;99.90
14687;DHT22;7431;49.440;11.084;2023-03-29T22:24:38;11.40;99.90
14687;DHT22;7431;49.440;11.084;2023-03-29T22:27:04;11.40;99.90
14687;DHT22;7431;49.440;11.084;2023-03-29T22:29:31;11.40;99.90
14687;DHT22;7431;49.440;11.084;2023-03-29T22:31:56;11.40;99.90
14687;DHT22;7431;49.440;11.084;2023-03-29T22:34:25;11.70;99.90
14687;DHT22;7431;49.440;11.084;2023-03-29T22:36:51;11.50;99.90
14687;DHT22;7431;49.440;11.084;2023-03-29T22:39:16;11.40;99.90
14687;DHT22;7431;49.440;11.084;2023-03-29T22:41:42;11.40;99.90
14687;DHT22;7431;49.440;11.084;2023-03-29T22:44:08;11.30;99.90
14687;DHT22;7431;49.440;11.084;2023-03-29T22:46:33;11.40;99.90
14687;DHT22;7431;49.440;11.084;2023-03-29T22:48:59;11.30;99.90
14687;DHT22;7431;49.440;11.084;2023-03-29T22:51:24;11.30;99.90
14687;DHT22;7431;49.440;11.084;2023-03-29T22:53:50;11.20;99.90
14687;DHT22;7431;49.440;11.084;2023-03-29T22:56:16;11.50;99.90
14687;DHT22;7431;49.440;11.084;2023-03-29T22:58:42;11.10;99.90
14687;DHT22;7431;49.440;11.084;2023-03-29T23:01:07;11.30;99.90
14687;DHT22;7431;49.440;11.084;2023-03-29T23:03:33;11.40;99.90
14687;DHT22;7431;49.440;11.084;2023-03-29T23:05:59;12.60;99.90
14687;DHT22;7431;49.440;11.084;2023-03-29T23:08:30;11.40;99.90
14687;DHT22;7431;49.440;11.084;2023-03-29T23:10:56;11.40;99.90
14687;DHT22;7431;49.440;11.084;2023-03-29T23:13:22;11.40;99.90
14687;DHT22;7431;49.440;11.084;2023-03-29T23:15:54;11.40;99.90
14687;DHT22;7431;49.440;11.084;2023-03-29T23:18:21;11.40;99.90
14687;DHT22;7431;49.440;11.084;2023-03-29T23:20:49;11.40;99.90
14687;DHT22;7431;49.440;11.084;2023-03-29T23:23:16;11.40;99.90
14687;DHT22;7431;49.440;11.084;2023-03-29T23:25:47;12.10;99.90
14687;DHT22;7431;49.440;11.084;2023-03-29T23:28:15;11.40;99.90
14687;DHT22;7431;49.440;11.084;2023-03-29T23:30:41;11.40;99.90
14687;DHT22;7431;49.440;11.084;2023-03-29T23:33:07;11.40;99.90
14687;DHT22;7431;49.440;11.084;2023-03-29T23:35:38;11.40;99.90
14687;DHT22;7431;49.440;11.084;2023-03-29T23:38:04;11.30;99.90
14687;DHT22;7431;49.440;11.084;2023-03-29T23:40:30;11.30;99.90
14687;DHT22;7431;49.440;11.084;2023-03-29T23:42:57;11.30;99.90
14687;DHT22;7431;49.440;11.084;2023-03-29T23:45:24;11.30;99.90
14687;DHT22;7431;49.440;11.084;2023-03-29T23:47:51;11.30;99.90
14687;DHT22;7431;49.440;11.084;2023-03-29T23:50:17;11.30;99.90
14687;DHT22;7431;49.440;11.084;2023-03-29T23:52:43;11.30;99.90
14687;DHT22;7431;49.440;11.084;2023-03-29T23:55:12;11.20;99.90
14687;DHT22;7431;49.440;11.084;2023-03-29T23:57:39;11.40;99.90
